sensor_id;sensor_type;location;lat;lon;timestamp;pressure;altitude;pressure_sealevel;temperature;humidity
38054;BME280;23859;50.672;7.164;2022-10-28T00:00:27;101148.97;;;19.09;88.83
38054;BME280;23859;50.672;7.164;2022-10-28T00:02:53;101147.06;;;19.17;88.33
38054;BME280;23859;50.672;7.164;2022-10-28T00:05:19;101137.00;;;19.11;88.78
38054;BME280;23859;50.672;7.164;2022-10-28T00:07:45;101130.75;;;19.11;88.92
38054;BME280;23859;50.672;7.164;2022-10-28T00:10:11;101127.16;;;19.18;87.96
38054;BME280;23859;50.672;7.164;2022-10-28T00:12:37;101122.84;;;19.09;89.01
38054;BME280;23859;50.672;7.164;2022-10-28T00:15:04;101122.50;;;19.12;88.44
38054;BME280;23859;50.672;7.164;2022-10-28T00:17:30;101118.50;;;19.00;88.89
38054;BME280;23859;50.672;7.164;2022-10-28T00:19:56;101109.41;;;19.01;89.44
38054;BME280;23859;50.672;7.164;2022-10-28T00:22:22;101106.84;;;19.08;88.64
38054;BME280;23859;50.672;7.164;2022-10-28T00:24:48;101111.66;;;19.20;87.84
38054;BME280;23859;50.672;7.164;2022-10-28T00:27:14;101112.03;;;19.17;87.71
38054;BME280;23859;50.672;7.164;2022-10-28T00:29:40;101101.09;;;19.11;88.12
38054;BME280;23859;50.672;7.164;2022-10-28T00:32:06;101111.25;;;19.01;88.79
38054;BME280;23859;50.672;7.164;2022-10-28T00:34:32;101094.22;;;19.08;88.13
38054;BME280;23859;50.672;7.164;2022-10-28T00:36:58;101097.06;;;19.07;87.72
38054;BME280;23859;50.672;7.164;2022-10-28T00:39:25;101094.16;;;19.16;87.43
38054;BME280;23859;50.672;7.164;2022-10-28T00:41:54;101092.38;;;19.09;87.88
38054;BME280;23859;50.672;7.164;2022-10-28T00:44:46;101086.81;;;19.02;87.84
38054;BME280;23859;50.672;7.164;2022-10-28T00:50:10;101104.56;;;19.19;87.10
38054;BME280;23859;50.672;7.164;2022-10-28T00:52:38;101107.97;;;19.13;87.22
38054;BME280;23859;50.672;7.164;2022-10-28T00:55:05;101110.16;;;19.18;86.66
38054;BME280;23859;50.672;7.164;2022-10-28T00:57:34;101115.34;;;19.19;86.92
38054;BME280;23859;50.672;7.164;2022-10-28T01:00:04;101128.84;;;19.19;86.54
38054;BME280;23859;50.672;7.164;2022-10-28T01:02:31;101120.03;;;19.25;86.42
38054;BME280;23859;50.672;7.164;2022-10-28T01:05:00;101131.53;;;19.19;86.06
38054;BME280;23859;50.672;7.164;2022-10-28T01:07:26;101111.94;;;19.25;85.70
38054;BME280;23859;50.672;7.164;2022-10-28T01:09:52;101108.44;;;19.25;85.42
38054;BME280;23859;50.672;7.164;2022-10-28T01:17:58;101096.03;;;19.38;84.42
38054;BME280;23859;50.672;7.164;2022-10-28T01:24:14;101089.41;;;19.18;85.43
38054;BME280;23859;50.672;7.164;2022-10-28T01:32:30;101095.56;;;19.04;86.00
38054;BME280;23859;50.672;7.164;2022-10-28T01:35:18;101100.66;;;18.99;86.53
38054;BME280;23859;50.672;7.164;2022-10-28T01:40:51;101092.66;;;19.14;85.07
38054;BME280;23859;50.672;7.164;2022-10-28T01:43:36;101082.91;;;19.05;86.09
38054;BME280;23859;50.672;7.164;2022-10-28T01:46:11;101087.53;;;18.96;86.30
38054;BME280;23859;50.672;7.164;2022-10-28T01:48:47;101082.16;;;18.96;86.34
38054;BME280;23859;50.672;7.164;2022-10-28T01:51:28;101070.31;;;18.97;86.13
38054;BME280;23859;50.672;7.164;2022-10-28T01:53:57;101079.69;;;18.87;87.16
38054;BME280;23859;50.672;7.164;2022-10-28T01:56:30;101065.78;;;18.98;86.51
38054;BME280;23859;50.672;7.164;2022-10-28T01:58:59;101066.94;;;19.03;85.62
38054;BME280;23859;50.672;7.164;2022-10-28T02:01:28;101072.66;;;19.08;85.64
38054;BME280;23859;50.672;7.164;2022-10-28T02:03:56;101059.47;;;19.13;84.60
38054;BME280;23859;50.672;7.164;2022-10-28T02:06:24;101048.13;;;18.95;85.39
38054;BME280;23859;50.672;7.164;2022-10-28T02:09:17;101037.66;;;19.00;84.80
38054;BME280;23859;50.672;7.164;2022-10-28T02:12:10;101033.47;;;19.20;83.85
38054;BME280;23859;50.672;7.164;2022-10-28T02:14:47;101038.53;;;19.23;83.97
38054;BME280;23859;50.672;7.164;2022-10-28T02:17:43;101034.78;;;19.24;83.38
38054;BME280;23859;50.672;7.164;2022-10-28T02:23:16;101027.31;;;19.48;81.81
38054;BME280;23859;50.672;7.164;2022-10-28T02:31:45;101021.53;;;19.37;82.70
38054;BME280;23859;50.672;7.164;2022-10-28T02:34:17;101024.47;;;19.28;83.16
38054;BME280;23859;50.672;7.164;2022-10-28T02:36:48;101018.19;;;19.35;82.85
38054;BME280;23859;50.672;7.164;2022-10-28T02:39:19;101022.47;;;19.30;83.12
38054;BME280;23859;50.672;7.164;2022-10-28T02:42:02;101029.41;;;19.24;83.53
38054;BME280;23859;50.672;7.164;2022-10-28T02:44:36;101036.19;;;19.20;83.42
38054;BME280;23859;50.672;7.164;2022-10-28T02:47:08;101042.56;;;19.19;83.78
38054;BME280;23859;50.672;7.164;2022-10-28T02:49:37;101067.84;;;19.18;84.06
38054;BME280;23859;50.672;7.164;2022-10-28T02:52:06;101072.31;;;19.11;84.12
38054;BME280;23859;50.672;7.164;2022-10-28T02:54:45;101079.97;;;19.22;83.25
38054;BME280;23859;50.672;7.164;2022-10-28T02:57:16;101073.19;;;19.26;83.59
38054;BME280;23859;50.672;7.164;2022-10-28T02:59:51;101067.81;;;19.26;82.97
38054;BME280;23859;50.672;7.164;2022-10-28T03:02:18;101066.34;;;19.16;83.61
38054;BME280;23859;50.672;7.164;2022-10-28T03:04:44;101061.44;;;19.19;83.65
38054;BME280;23859;50.672;7.164;2022-10-28T03:07:10;101070.69;;;19.25;83.49
38054;BME280;23859;50.672;7.164;2022-10-28T03:09:36;101050.91;;;19.32;83.07
38054;BME280;23859;50.672;7.164;2022-10-28T03:12:02;101049.94;;;19.25;83.23
38054;BME280;23859;50.672;7.164;2022-10-28T03:14:28;101045.22;;;19.27;83.14
38054;BME280;23859;50.672;7.164;2022-10-28T03:16:54;101050.13;;;19.24;83.65
38054;BME280;23859;50.672;7.164;2022-10-28T03:19:20;101046.03;;;19.05;84.44
38054;BME280;23859;50.672;7.164;2022-10-28T03:21:46;101043.84;;;19.09;84.03
38054;BME280;23859;50.672;7.164;2022-10-28T03:24:12;101043.38;;;18.97;85.06
38054;BME280;23859;50.672;7.164;2022-10-28T03:26:38;101035.41;;;19.12;84.43
38054;BME280;23859;50.672;7.164;2022-10-28T03:29:04;101044.16;;;19.14;84.68
38054;BME280;23859;50.672;7.164;2022-10-28T03:31:30;101043.03;;;19.00;85.21
38054;BME280;23859;50.672;7.164;2022-10-28T03:33:56;101034.47;;;18.97;85.33
38054;BME280;23859;50.672;7.164;2022-10-28T03:36:22;101037.69;;;18.92;86.07
38054;BME280;23859;50.672;7.164;2022-10-28T03:38:48;101034.06;;;18.85;86.65
38054;BME280;23859;50.672;7.164;2022-10-28T03:41:14;101026.63;;;18.87;86.28
38054;BME280;23859;50.672;7.164;2022-10-28T03:43:40;101021.94;;;18.81;86.90
38054;BME280;23859;50.672;7.164;2022-10-28T03:46:07;101017.22;;;18.83;86.46
38054;BME280;23859;50.672;7.164;2022-10-28T03:48:33;101014.16;;;18.64;87.08
38054;BME280;23859;50.672;7.164;2022-10-28T03:50:59;101006.59;;;18.60;87.95
38054;BME280;23859;50.672;7.164;2022-10-28T03:53:25;101006.66;;;18.52;88.35
38054;BME280;23859;50.672;7.164;2022-10-28T03:55:55;101005.66;;;18.53;88.53
38054;BME280;23859;50.672;7.164;2022-10-28T03:58:21;100891.59;;;17.85;88.14
38054;BME280;23859;50.672;7.164;2022-10-28T04:00:48;101005.28;;;18.56;88.08
38054;BME280;23859;50.672;7.164;2022-10-28T04:03:15;101000.88;;;18.63;87.83
38054;BME280;23859;50.672;7.164;2022-10-28T04:05:42;101000.56;;;18.58;88.02
38054;BME280;23859;50.672;7.164;2022-10-28T04:08:08;100878.13;;;17.85;87.68
38054;BME280;23859;50.672;7.164;2022-10-28T04:10:34;100999.97;;;18.40;89.09
38054;BME280;23859;50.672;7.164;2022-10-28T04:13:01;100990.19;;;18.47;88.52
38054;BME280;23859;50.672;7.164;2022-10-28T04:15:28;100988.59;;;18.60;87.90
38054;BME280;23859;50.672;7.164;2022-10-28T04:17:54;100986.66;;;18.46;88.65
38054;BME280;23859;50.672;7.164;2022-10-28T04:20:20;100985.81;;;18.46;88.70
38054;BME280;23859;50.672;7.164;2022-10-28T04:22:46;100985.16;;;18.44;88.54
38054;BME280;23859;50.672;7.164;2022-10-28T04:25:12;100983.41;;;18.28;89.65
38054;BME280;23859;50.672;7.164;2022-10-28T04:27:39;100984.53;;;18.34;89.49
38054;BME280;23859;50.672;7.164;2022-10-28T04:30:05;100978.19;;;18.27;89.79
38054;BME280;23859;50.672;7.164;2022-10-28T04:32:31;100983.22;;;18.30;89.23
38054;BME280;23859;50.672;7.164;2022-10-28T04:34:57;100974.75;;;18.41;88.18
38054;BME280;23859;50.672;7.164;2022-10-28T04:37:23;100978.56;;;18.46;88.17
38054;BME280;23859;50.672;7.164;2022-10-28T04:39:49;100986.44;;;18.56;87.66
38054;BME280;23859;50.672;7.164;2022-10-28T04:42:15;100975.00;;;18.54;87.95
38054;BME280;23859;50.672;7.164;2022-10-28T04:44:41;100975.00;;;18.54;87.55
38054;BME280;23859;50.672;7.164;2022-10-28T04:47:07;100968.88;;;18.60;87.36
38054;BME280;23859;50.672;7.164;2022-10-28T04:49:33;100973.25;;;18.61;87.42
38054;BME280;23859;50.672;7.164;2022-10-28T04:51:59;100974.22;;;18.45;88.17
38054;BME280;23859;50.672;7.164;2022-10-28T04:54:26;100972.72;;;18.43;88.38
38054;BME280;23859;50.672;7.164;2022-10-28T04:56:53;100972.09;;;18.33;89.02
38054;BME280;23859;50.672;7.164;2022-10-28T04:59:19;100998.66;;;18.36;88.90
38054;BME280;23859;50.672;7.164;2022-10-28T05:01:45;100999.28;;;18.46;87.99
38054;BME280;23859;50.672;7.164;2022-10-28T05:04:12;101000.69;;;18.64;87.35
38054;BME280;23859;50.672;7.164;2022-10-28T05:06:38;101006.78;;;18.58;87.39
38054;BME280;23859;50.672;7.164;2022-10-28T05:09:04;101020.00;;;18.45;88.08
38054;BME280;23859;50.672;7.164;2022-10-28T05:11:30;101022.53;;;18.39;88.57
38054;BME280;23859;50.672;7.164;2022-10-28T05:13:56;101026.59;;;18.35;88.91
38054;BME280;23859;50.672;7.164;2022-10-28T05:16:22;101031.31;;;18.33;89.22
38054;BME280;23859;50.672;7.164;2022-10-28T05:18:48;101026.66;;;18.27;89.83
38054;BME280;23859;50.672;7.164;2022-10-28T05:21:14;101032.84;;;18.27;89.68
38054;BME280;23859;50.672;7.164;2022-10-28T05:23:40;101027.47;;;18.27;89.38
38054;BME280;23859;50.672;7.164;2022-10-28T05:26:06;101019.22;;;18.29;89.37
38054;BME280;23859;50.672;7.164;2022-10-28T05:28:32;101008.44;;;18.29;89.54
38054;BME280;23859;50.672;7.164;2022-10-28T05:30:58;101011.94;;;18.37;88.88
38054;BME280;23859;50.672;7.164;2022-10-28T05:33:24;101010.06;;;18.38;88.88
38054;BME280;23859;50.672;7.164;2022-10-28T05:35:51;101005.44;;;18.24;89.46
38054;BME280;23859;50.672;7.164;2022-10-28T05:38:17;101007.47;;;18.22;89.36
38054;BME280;23859;50.672;7.164;2022-10-28T05:40:43;101008.44;;;18.29;89.26
38054;BME280;23859;50.672;7.164;2022-10-28T05:43:09;101003.78;;;18.15;90.13
38054;BME280;23859;50.672;7.164;2022-10-28T05:45:36;101004.13;;;18.20;90.22
38054;BME280;23859;50.672;7.164;2022-10-28T05:48:02;101003.97;;;18.13;90.35
38054;BME280;23859;50.672;7.164;2022-10-28T05:50:28;101009.19;;;18.07;91.05
38054;BME280;23859;50.672;7.164;2022-10-28T05:52:56;101006.19;;;18.02;91.00
38054;BME280;23859;50.672;7.164;2022-10-28T05:55:24;101006.19;;;18.02;91.48
38054;BME280;23859;50.672;7.164;2022-10-28T05:57:52;100997.47;;;18.00;91.09
38054;BME280;23859;50.672;7.164;2022-10-28T06:00:21;100995.91;;;18.05;90.65
38054;BME280;23859;50.672;7.164;2022-10-28T06:02:47;100995.09;;;18.05;90.56
38054;BME280;23859;50.672;7.164;2022-10-28T06:05:13;100999.59;;;18.12;90.42
38054;BME280;23859;50.672;7.164;2022-10-28T06:07:40;101001.09;;;18.15;90.13
38054;BME280;23859;50.672;7.164;2022-10-28T06:10:07;100991.53;;;18.12;90.08
38054;BME280;23859;50.672;7.164;2022-10-28T06:12:34;100998.03;;;18.18;90.17
38054;BME280;23859;50.672;7.164;2022-10-28T06:15:01;100995.69;;;18.23;88.46
38054;BME280;23859;50.672;7.164;2022-10-28T06:17:28;100995.19;;;18.27;88.48
38054;BME280;23859;50.672;7.164;2022-10-28T06:19:54;101003.88;;;18.37;87.73
38054;BME280;23859;50.672;7.164;2022-10-28T06:22:20;101005.19;;;18.41;87.40
38054;BME280;23859;50.672;7.164;2022-10-28T06:24:46;101003.34;;;18.42;87.22
38054;BME280;23859;50.672;7.164;2022-10-28T06:27:12;101011.72;;;18.47;86.56
38054;BME280;23859;50.672;7.164;2022-10-28T06:29:38;101011.06;;;18.45;86.90
38054;BME280;23859;50.672;7.164;2022-10-28T06:32:04;101007.78;;;18.57;85.78
38054;BME280;23859;50.672;7.164;2022-10-28T06:34:30;101024.31;;;18.54;86.13
38054;BME280;23859;50.672;7.164;2022-10-28T06:36:56;101019.41;;;18.58;85.46
38054;BME280;23859;50.672;7.164;2022-10-28T06:39:22;101022.75;;;18.60;85.59
38054;BME280;23859;50.672;7.164;2022-10-28T06:41:49;101020.72;;;18.62;85.97
38054;BME280;23859;50.672;7.164;2022-10-28T06:44:15;101020.34;;;18.65;84.81
38054;BME280;23859;50.672;7.164;2022-10-28T06:46:41;101022.03;;;18.66;85.18
38054;BME280;23859;50.672;7.164;2022-10-28T06:49:07;101032.56;;;18.83;84.02
38054;BME280;23859;50.672;7.164;2022-10-28T06:51:34;101025.66;;;18.80;83.67
38054;BME280;23859;50.672;7.164;2022-10-28T06:54:00;101025.53;;;18.74;84.41
38054;BME280;23859;50.672;7.164;2022-10-28T06:56:26;101028.91;;;18.76;84.46
38054;BME280;23859;50.672;7.164;2022-10-28T06:58:53;101022.91;;;18.88;83.08
38054;BME280;23859;50.672;7.164;2022-10-28T07:01:20;101028.13;;;18.90;83.27
38054;BME280;23859;50.672;7.164;2022-10-28T07:03:47;101029.56;;;19.00;82.23
38054;BME280;23859;50.672;7.164;2022-10-28T07:06:14;101024.13;;;19.08;81.07
38054;BME280;23859;50.672;7.164;2022-10-28T07:08:40;101028.56;;;19.01;82.23
38054;BME280;23859;50.672;7.164;2022-10-28T07:11:06;101027.22;;;18.97;82.59
38054;BME280;23859;50.672;7.164;2022-10-28T07:13:32;101033.66;;;18.96;81.87
38054;BME280;23859;50.672;7.164;2022-10-28T07:16:00;101034.25;;;19.06;81.57
38054;BME280;23859;50.672;7.164;2022-10-28T07:18:28;101044.63;;;19.17;80.90
38054;BME280;23859;50.672;7.164;2022-10-28T07:20:57;101046.28;;;19.18;80.68
38054;BME280;23859;50.672;7.164;2022-10-28T07:23:24;101050.81;;;19.40;79.63
38054;BME280;23859;50.672;7.164;2022-10-28T07:25:52;101047.50;;;19.38;79.67
38054;BME280;23859;50.672;7.164;2022-10-28T07:28:19;101044.13;;;19.36;79.59
38054;BME280;23859;50.672;7.164;2022-10-28T07:30:45;101041.38;;;19.44;79.15
38054;BME280;23859;50.672;7.164;2022-10-28T07:33:11;101042.31;;;19.51;78.66
38054;BME280;23859;50.672;7.164;2022-10-28T07:35:37;101046.34;;;19.69;78.40
38054;BME280;23859;50.672;7.164;2022-10-28T07:38:03;101048.75;;;19.64;78.05
38054;BME280;23859;50.672;7.164;2022-10-28T07:40:29;101050.38;;;19.51;78.55
38054;BME280;23859;50.672;7.164;2022-10-28T07:42:56;101041.66;;;19.49;78.73
38054;BME280;23859;50.672;7.164;2022-10-28T07:45:22;101049.50;;;19.73;77.84
38054;BME280;23859;50.672;7.164;2022-10-28T07:47:48;101052.13;;;19.66;77.63
38054;BME280;23859;50.672;7.164;2022-10-28T07:50:15;101064.00;;;19.57;78.48
38054;BME280;23859;50.672;7.164;2022-10-28T07:52:41;101062.66;;;19.76;77.15
38054;BME280;23859;50.672;7.164;2022-10-28T07:55:08;101067.31;;;19.82;77.22
38054;BME280;23859;50.672;7.164;2022-10-28T07:57:35;101068.22;;;19.89;76.75
38054;BME280;23859;50.672;7.164;2022-10-28T08:00:02;101066.09;;;19.84;77.21
38054;BME280;23859;50.672;7.164;2022-10-28T08:02:28;101062.75;;;19.82;77.72
38054;BME280;23859;50.672;7.164;2022-10-28T08:04:54;101069.63;;;19.85;77.16
38054;BME280;23859;50.672;7.164;2022-10-28T08:07:22;101070.91;;;19.97;77.19
38054;BME280;23859;50.672;7.164;2022-10-28T08:09:48;101065.34;;;19.90;76.63
38054;BME280;23859;50.672;7.164;2022-10-28T08:12:14;101068.75;;;19.92;76.29
38054;BME280;23859;50.672;7.164;2022-10-28T08:14:40;101068.94;;;20.05;76.07
38054;BME280;23859;50.672;7.164;2022-10-28T08:17:07;101063.72;;;20.04;76.27
38054;BME280;23859;50.672;7.164;2022-10-28T08:19:33;101075.91;;;20.00;76.92
38054;BME280;23859;50.672;7.164;2022-10-28T08:21:59;101068.00;;;19.98;76.82
38054;BME280;23859;50.672;7.164;2022-10-28T08:24:27;101063.38;;;20.07;76.12
38054;BME280;23859;50.672;7.164;2022-10-28T08:26:53;101060.66;;;20.07;76.48
38054;BME280;23859;50.672;7.164;2022-10-28T08:29:19;101062.69;;;20.19;75.39
38054;BME280;23859;50.672;7.164;2022-10-28T08:31:45;101059.19;;;20.18;76.33
38054;BME280;23859;50.672;7.164;2022-10-28T08:34:11;101058.88;;;20.28;75.81
38054;BME280;23859;50.672;7.164;2022-10-28T08:36:37;101055.97;;;20.44;74.46
38054;BME280;23859;50.672;7.164;2022-10-28T08:39:03;101056.50;;;20.68;73.54
38054;BME280;23859;50.672;7.164;2022-10-28T08:41:37;101054.16;;;20.94;72.65
38054;BME280;23859;50.672;7.164;2022-10-28T08:49:42;101035.84;;;20.96;72.08
38054;BME280;23859;50.672;7.164;2022-10-28T08:55:24;101034.03;;;21.44;70.34
38054;BME280;23859;50.672;7.164;2022-10-28T08:58:11;101036.88;;;21.57;69.63
38054;BME280;23859;50.672;7.164;2022-10-28T09:00:45;101033.78;;;21.60;69.36
38054;BME280;23859;50.672;7.164;2022-10-28T09:03:15;101035.06;;;21.64;68.96
38054;BME280;23859;50.672;7.164;2022-10-28T09:05:44;101038.16;;;21.61;68.88
38054;BME280;23859;50.672;7.164;2022-10-28T09:08:20;101037.22;;;21.75;68.75
38054;BME280;23859;50.672;7.164;2022-10-28T09:13:39;101034.09;;;22.06;68.57
38054;BME280;23859;50.672;7.164;2022-10-28T09:19:01;101035.16;;;22.38;66.39
38054;BME280;23859;50.672;7.164;2022-10-28T09:21:35;101042.34;;;22.59;65.50
38054;BME280;23859;50.672;7.164;2022-10-28T09:24:20;101044.34;;;22.10;67.17
38054;BME280;23859;50.672;7.164;2022-10-28T09:26:57;101055.53;;;22.01;67.96
38054;BME280;23859;50.672;7.164;2022-10-28T09:32:17;101051.59;;;22.83;65.47
38054;BME280;23859;50.672;7.164;2022-10-28T09:34:51;101052.16;;;23.84;61.21
38054;BME280;23859;50.672;7.164;2022-10-28T09:37:30;101040.38;;;24.85;57.94
38054;BME280;23859;50.672;7.164;2022-10-28T09:40:24;101042.44;;;25.57;55.18
38054;BME280;23859;50.672;7.164;2022-10-28T09:43:05;101050.28;;;26.14;53.31
38054;BME280;23859;50.672;7.164;2022-10-28T09:45:36;101051.00;;;26.10;53.06
38054;BME280;23859;50.672;7.164;2022-10-28T09:48:22;101057.78;;;26.61;51.49
38054;BME280;23859;50.672;7.164;2022-10-28T09:50:51;101052.84;;;26.69;51.49
38054;BME280;23859;50.672;7.164;2022-10-28T09:53:39;101056.97;;;26.42;51.99
38054;BME280;23859;50.672;7.164;2022-10-28T09:56:07;101053.50;;;25.62;54.38
38054;BME280;23859;50.672;7.164;2022-10-28T09:58:34;101062.06;;;24.54;57.69
38054;BME280;23859;50.672;7.164;2022-10-28T10:01:02;101061.63;;;24.64;58.01
38054;BME280;23859;50.672;7.164;2022-10-28T10:03:30;101061.84;;;25.06;56.81
38054;BME280;23859;50.672;7.164;2022-10-28T10:06:00;101057.22;;;25.13;55.94
38054;BME280;23859;50.672;7.164;2022-10-28T10:08:29;101064.50;;;24.75;57.85
38054;BME280;23859;50.672;7.164;2022-10-28T10:11:05;101070.19;;;25.72;55.04
38054;BME280;23859;50.672;7.164;2022-10-28T10:13:39;101055.19;;;26.66;52.33
38054;BME280;23859;50.672;7.164;2022-10-28T10:16:32;101050.91;;;27.46;49.76
38054;BME280;23859;50.672;7.164;2022-10-28T10:19:05;101053.47;;;27.70;48.96
38054;BME280;23859;50.672;7.164;2022-10-28T10:21:45;101053.03;;;26.86;50.87
38054;BME280;23859;50.672;7.164;2022-10-28T10:26:52;101051.44;;;24.40;58.41
38054;BME280;23859;50.672;7.164;2022-10-28T10:29:19;101054.25;;;24.08;60.28
38054;BME280;23859;50.672;7.164;2022-10-28T10:31:47;101064.06;;;24.09;60.11
38054;BME280;23859;50.672;7.164;2022-10-28T10:34:24;101048.81;;;23.95;60.98
38054;BME280;23859;50.672;7.164;2022-10-28T10:36:54;101044.44;;;24.00;61.26
38054;BME280;23859;50.672;7.164;2022-10-28T10:39:24;101040.88;;;23.67;62.57
38054;BME280;23859;50.672;7.164;2022-10-28T10:41:53;101041.69;;;23.68;62.99
38054;BME280;23859;50.672;7.164;2022-10-28T10:44:23;101032.53;;;23.56;63.03
38054;BME280;23859;50.672;7.164;2022-10-28T10:49:36;101034.03;;;23.78;62.97
38054;BME280;23859;50.672;7.164;2022-10-28T10:52:17;101040.06;;;23.73;64.15
38054;BME280;23859;50.672;7.164;2022-10-28T10:55:02;101033.78;;;23.99;62.80
38054;BME280;23859;50.672;7.164;2022-10-28T10:57:29;101029.00;;;23.88;62.69
38054;BME280;23859;50.672;7.164;2022-10-28T10:59:56;101031.25;;;24.10;62.20
38054;BME280;23859;50.672;7.164;2022-10-28T11:02:24;101036.72;;;23.91;62.62
38054;BME280;23859;50.672;7.164;2022-10-28T11:05:00;101032.94;;;23.92;63.16
38054;BME280;23859;50.672;7.164;2022-10-28T11:07:28;101025.88;;;23.71;63.89
38054;BME280;23859;50.672;7.164;2022-10-28T11:09:56;101026.06;;;23.76;63.75
38054;BME280;23859;50.672;7.164;2022-10-28T11:12:32;101013.59;;;24.38;62.29
38054;BME280;23859;50.672;7.164;2022-10-28T11:18:15;101008.69;;;25.58;57.32
38054;BME280;23859;50.672;7.164;2022-10-28T11:21:06;100997.75;;;26.25;56.15
38054;BME280;23859;50.672;7.164;2022-10-28T11:23:44;101007.00;;;26.06;57.84
38054;BME280;23859;50.672;7.164;2022-10-28T11:26:17;101000.19;;;25.97;56.94
38054;BME280;23859;50.672;7.164;2022-10-28T11:28:57;100993.25;;;25.77;56.93
38054;BME280;23859;50.672;7.164;2022-10-28T11:31:57;100992.13;;;25.60;58.37
38054;BME280;23859;50.672;7.164;2022-10-28T11:39:40;100981.88;;;25.07;59.54
38054;BME280;23859;50.672;7.164;2022-10-28T11:42:32;100980.28;;;25.48;58.16
38054;BME280;23859;50.672;7.164;2022-10-28T11:53:16;100973.66;;;25.86;56.84
38054;BME280;23859;50.672;7.164;2022-10-28T11:55:55;100972.13;;;25.72;57.54
38054;BME280;23859;50.672;7.164;2022-10-28T12:05:00;100971.59;;;24.78;60.06
38054;BME280;23859;50.672;7.164;2022-10-28T12:23:32;100969.31;;;25.06;57.99
38054;BME280;23859;50.672;7.164;2022-10-28T12:26:00;100967.13;;;25.21;57.97
38054;BME280;23859;50.672;7.164;2022-10-28T12:28:36;100958.06;;;25.27;58.44
38054;BME280;23859;50.672;7.164;2022-10-28T12:31:19;100873.72;;;24.65;57.75
38054;BME280;23859;50.672;7.164;2022-10-28T12:33:50;100968.00;;;25.15;57.85
38054;BME280;23859;50.672;7.164;2022-10-28T12:36:23;100964.91;;;25.36;57.12
38054;BME280;23859;50.672;7.164;2022-10-28T12:39:26;100969.72;;;25.58;56.36
38054;BME280;23859;50.672;7.164;2022-10-28T12:44:51;100958.00;;;25.57;56.47
38054;BME280;23859;50.672;7.164;2022-10-28T12:47:46;100952.94;;;25.61;56.33
38054;BME280;23859;50.672;7.164;2022-10-28T12:53:22;100953.91;;;25.49;56.64
38054;BME280;23859;50.672;7.164;2022-10-28T12:56:00;100949.72;;;25.46;56.54
38054;BME280;23859;50.672;7.164;2022-10-28T12:58:34;100947.44;;;25.19;57.35
38054;BME280;23859;50.672;7.164;2022-10-28T13:01:10;100945.75;;;25.24;57.52
38054;BME280;23859;50.672;7.164;2022-10-28T13:03:39;100943.44;;;25.21;58.18
38054;BME280;23859;50.672;7.164;2022-10-28T13:06:21;100961.75;;;25.14;58.28
38054;BME280;23859;50.672;7.164;2022-10-28T13:18:11;100949.28;;;24.94;58.94
38054;BME280;23859;50.672;7.164;2022-10-28T13:26:28;100954.50;;;24.95;59.22
38054;BME280;23859;50.672;7.164;2022-10-28T13:28:58;100949.69;;;24.97;59.52
38054;BME280;23859;50.672;7.164;2022-10-28T13:31:42;100957.84;;;24.97;59.37
38054;BME280;23859;50.672;7.164;2022-10-28T13:34:13;100955.94;;;24.98;58.73
38054;BME280;23859;50.672;7.164;2022-10-28T13:36:43;100948.66;;;24.92;59.37
38054;BME280;23859;50.672;7.164;2022-10-28T13:44:57;100941.47;;;25.04;58.72
38054;BME280;23859;50.672;7.164;2022-10-28T13:47:29;100952.44;;;24.91;60.89
38054;BME280;23859;50.672;7.164;2022-10-28T13:50:09;100947.56;;;24.69;60.69
38054;BME280;23859;50.672;7.164;2022-10-28T13:52:41;100955.28;;;24.72;60.80
38054;BME280;23859;50.672;7.164;2022-10-28T13:55:24;100946.75;;;24.68;61.40
38054;BME280;23859;50.672;7.164;2022-10-28T13:57:59;100945.31;;;24.59;60.73
38054;BME280;23859;50.672;7.164;2022-10-28T14:03:00;100943.28;;;24.48;62.25
38054;BME280;23859;50.672;7.164;2022-10-28T14:10:59;100947.63;;;24.12;64.04
38054;BME280;23859;50.672;7.164;2022-10-28T14:13:26;100955.59;;;24.01;64.06
38054;BME280;23859;50.672;7.164;2022-10-28T14:16:16;100956.63;;;24.00;64.19
38054;BME280;23859;50.672;7.164;2022-10-28T14:21:21;100964.66;;;23.82;68.24
38054;BME280;23859;50.672;7.164;2022-10-28T14:23:48;100963.59;;;23.70;70.24
38054;BME280;23859;50.672;7.164;2022-10-28T14:26:15;100966.31;;;23.70;66.06
38054;BME280;23859;50.672;7.164;2022-10-28T14:36:43;100971.31;;;23.73;63.67
38054;BME280;23859;50.672;7.164;2022-10-28T14:39:34;100978.44;;;23.74;62.48
38054;BME280;23859;50.672;7.164;2022-10-28T14:42:31;100969.88;;;23.77;62.84
38054;BME280;23859;50.672;7.164;2022-10-28T14:50:41;100979.06;;;23.56;66.04
38054;BME280;23859;50.672;7.164;2022-10-28T14:53:16;100976.16;;;23.51;63.94
38054;BME280;23859;50.672;7.164;2022-10-28T14:55:49;100981.16;;;23.22;65.80
38054;BME280;23859;50.672;7.164;2022-10-28T14:58:26;100988.47;;;23.15;64.83
38054;BME280;23859;50.672;7.164;2022-10-28T15:03:25;100980.53;;;23.14;66.38
38054;BME280;23859;50.672;7.164;2022-10-28T15:05:52;100988.41;;;22.96;65.46
38054;BME280;23859;50.672;7.164;2022-10-28T15:08:18;100988.81;;;22.99;64.61
38054;BME280;23859;50.672;7.164;2022-10-28T15:10:47;101000.69;;;22.85;68.57
38054;BME280;23859;50.672;7.164;2022-10-28T15:13:17;100999.03;;;22.84;67.94
38054;BME280;23859;50.672;7.164;2022-10-28T15:15:53;101016.53;;;22.82;67.78
38054;BME280;23859;50.672;7.164;2022-10-28T15:18:22;101033.63;;;22.76;69.01
38054;BME280;23859;50.672;7.164;2022-10-28T15:20:48;101049.88;;;22.70;68.61
38054;BME280;23859;50.672;7.164;2022-10-28T15:23:22;101057.38;;;22.74;68.24
38054;BME280;23859;50.672;7.164;2022-10-28T15:26:10;101064.81;;;22.53;70.47
38054;BME280;23859;50.672;7.164;2022-10-28T15:28:38;101069.19;;;22.20;71.12
38054;BME280;23859;50.672;7.164;2022-10-28T15:31:05;101059.13;;;22.08;71.40